Orbital elements of COSMOS 970 DEB
| Launched | 20 December 1977 |
| Flight ended | – |
| Launch site | Tyuratam Missile and Space Center, Kazakhstan (Also known as Baikonur Cosmodrome) |
| Owner | Commonwealth of Independent States (former USSR) |
| NORAD ID | 10881 |
| Date fetched |
Epoch osculation |
Inc. [°] |
Ecc. | RA asc node [hr] |
Arg Peri. [°] |
Mean anom [°] |
Mean motion [rev/day] |
Abs. mag |
| Date fetched |
Epoch osculation |
Inc. [°] |
Ecc. | RA asc node [hr] |
Arg Peri. [°] |
Mean anom [°] |
Mean motion [rev/day] |
Abs. mag |
| 2026 May 03 17:57 | 2026 Apr 30 13:55:27 | 65.8443 | 0.01296 | 13.1231 | 165.3187 | 195.1695 | 13.69527 | – |
| 2026 May 02 17:57 | 2026 Apr 30 13:55:27 | 65.8443 | 0.01296 | 13.1231 | 165.3187 | 195.1695 | 13.69527 | – |
| 2026 May 01 17:56 | 2026 Apr 30 13:55:27 | 65.8443 | 0.01296 | 13.1231 | 165.3187 | 195.1695 | 13.69527 | – |
| 2026 Apr 30 17:56 | 2026 Apr 30 13:55:27 | 65.8443 | 0.01296 | 13.1231 | 165.3187 | 195.1695 | 13.69527 | – |
| 2026 Apr 29 17:57 | 2026 Apr 24 12:27:26 | 65.8446 | 0.01301 | 14.1119 | 168.2708 | 195.1695 | 13.69527 | – |
| 2026 Apr 28 17:56 | 2026 Apr 24 12:27:26 | 65.8446 | 0.01301 | 14.1119 | 168.2708 | 195.1695 | 13.69527 | – |
| 2026 Apr 27 17:58 | 2026 Apr 24 12:27:26 | 65.8446 | 0.01301 | 14.1119 | 168.2708 | 195.1695 | 13.69527 | – |
| 2026 Apr 26 17:58 | 2026 Apr 24 12:27:26 | 65.8446 | 0.01301 | 14.1119 | 168.2708 | 195.1695 | 13.69527 | – |
| 2026 Apr 25 17:58 | 2026 Apr 24 12:27:26 | 65.8446 | 0.01301 | 14.1119 | 168.2708 | 195.1695 | 13.69527 | – |
| 2026 Apr 24 17:59 | 2026 Apr 24 12:27:26 | 65.8446 | 0.01301 | 14.1119 | 168.2708 | 195.1695 | 13.69527 | – |
| 2026 Apr 23 17:57 | 2026 Apr 19 11:31:37 | 65.8444 | 0.01305 | 14.9340 | 170.7144 | 195.1695 | 13.69527 | – |
| 2026 Apr 22 17:57 | 2026 Apr 19 11:31:37 | 65.8444 | 0.01305 | 14.9340 | 170.7144 | 195.1695 | 13.69527 | – |
| 2026 Apr 21 17:57 | 2026 Apr 19 11:31:37 | 65.8444 | 0.01305 | 14.9340 | 170.7144 | 195.1695 | 13.69527 | – |
| 2026 Apr 20 17:57 | 2026 Apr 19 11:31:37 | 65.8444 | 0.01305 | 14.9340 | 170.7144 | 195.1695 | 13.69527 | – |
| 2026 Apr 19 17:58 | 2026 Apr 19 11:31:37 | 65.8444 | 0.01305 | 14.9340 | 170.7144 | 195.1695 | 13.69527 | – |
| 2026 Apr 18 17:56 | 2026 Apr 12 16:32:00 | 65.8442 | 0.01311 | 16.0420 | 174.0027 | 195.1695 | 13.69527 | – |
| 2026 Apr 16 17:57 | 2026 Apr 12 16:32:00 | 65.8442 | 0.01311 | 16.0420 | 174.0027 | 195.1695 | 13.69527 | – |
| 2026 Apr 14 17:57 | 2026 Apr 12 16:32:00 | 65.8442 | 0.01311 | 16.0420 | 174.0027 | 195.1695 | 13.69527 | – |
| 2026 Apr 13 17:57 | 2026 Apr 12 16:32:00 | 65.8442 | 0.01311 | 16.0420 | 174.0027 | 195.1695 | 13.69527 | – |
| 2026 Apr 12 17:57 | 2026 Apr 08 16:08:21 | 65.8438 | 0.01314 | 16.6973 | 175.9342 | 195.1695 | 13.69527 | – |
| 2026 Apr 11 17:57 | 2026 Apr 08 16:08:21 | 65.8438 | 0.01314 | 16.6973 | 175.9342 | 195.1695 | 13.69527 | – |
| 2026 Apr 10 17:58 | 2026 Apr 08 16:08:21 | 65.8438 | 0.01314 | 16.6973 | 175.9342 | 195.1695 | 13.69527 | – |
| 2026 Apr 09 18:01 | 2026 Apr 08 16:08:21 | 65.8438 | 0.01314 | 16.6973 | 175.9342 | 195.1695 | 13.69527 | – |
| 2026 Apr 08 17:57 | 2026 Apr 08 16:08:21 | 65.8438 | 0.01314 | 16.6973 | 175.9342 | 195.1695 | 13.69527 | – |
| 2026 Apr 07 17:57 | 2026 Apr 02 04:09:20 | 65.8432 | 0.01318 | 17.7577 | 179.0899 | 195.1695 | 13.69527 | – |
| 2026 Apr 06 17:57 | 2026 Apr 02 04:09:20 | 65.8432 | 0.01318 | 17.7577 | 179.0899 | 195.1695 | 13.69527 | – |